Time;durP1;ratioP1;P1;durP2;ratioP2;P2;SDS_P1;SDS_P2;PMS_P1;PMS_P2;Temp;Humidity;BMP_temperature;BMP_pressure;BME280_temperature;BME280_humidity;BME280_pressure;Samples;Min_cycle;Max_cycle;Signal;HPM_P1;HPM_P2
2023/02/04 00:00:56;;;;;;;5.83;5.23;;;8.10;99.90;;;;;;5019316;28;20197;-86
2023/02/04 00:03:21;;;;;;;6.63;5.67;;;8.10;99.90;;;;;;5032761;28;20255;-87
2023/02/04 00:05:47;;;;;;;6.03;5.50;;;8.10;99.90;;;;;;5036967;28;20239;-86
2023/02/04 00:08:13;;;;;;;6.13;5.53;;;8.20;99.90;;;;;;5037305;28;20882;-85
2023/02/04 00:10:38;;;;;;;5.90;5.37;;;8.10;99.90;;;;;;5037998;28;20227;-87
2023/02/04 00:13:04;;;;;;;6.53;5.93;;;8.10;99.90;;;;;;5034393;28;20178;-86
2023/02/04 00:15:30;;;;;;;6.17;5.50;;;8.20;99.90;;;;;;5017882;28;20548;-85
2023/02/04 00:17:55;;;;;;;6.80;6.17;;;8.20;99.90;;;;;;5017851;28;20242;-87
2023/02/04 00:20:21;;;;;;;7.30;6.13;;;8.10;99.90;;;;;;5018698;28;20214;-85
2023/02/04 00:22:47;;;;;;;6.27;5.73;;;8.20;99.90;;;;;;5037853;28;20177;-85
2023/02/04 00:25:13;;;;;;;6.30;5.80;;;8.20;99.90;;;;;;5038692;28;20176;-86
2023/02/04 00:27:38;;;;;;;6.00;5.50;;;8.20;99.90;;;;;;5038666;28;20718;-86
2023/02/04 00:30:05;;;;;;;5.77;5.27;;;8.30;99.90;;;;;;5039283;28;20228;-86
2023/02/04 00:32:31;;;;;;;6.83;5.87;;;8.30;99.90;;;;;;5039417;28;20181;-86
2023/02/04 00:34:57;;;;;;;6.30;5.50;;;8.40;99.90;;;;;;5039245;28;20196;-86
2023/02/04 00:37:23;;;;;;;6.07;5.57;;;8.30;99.90;;;;;;5039074;28;20196;-85
2023/02/04 00:39:49;;;;;;;7.00;6.40;;;8.30;99.90;;;;;;5043012;28;20947;-86
2023/02/04 00:42:15;;;;;;;5.93;5.40;;;8.10;99.90;;;;;;5044263;28;20269;-86
2023/02/04 00:44:41;;;;;;;6.20;5.60;;;8.30;99.90;;;;;;5044093;28;20215;-86
2023/02/04 00:47:07;;;;;;;6.30;5.80;;;8.20;99.90;;;;;;5042807;28;20192;-86
2023/02/04 00:49:33;;;;;;;6.37;5.87;;;8.30;99.90;;;;;;5041683;28;20408;-86
2023/02/04 00:51:59;;;;;;;6.77;6.07;;;8.30;99.90;;;;;;5042756;28;20177;-86
2023/02/04 00:54:25;;;;;;;6.83;6.03;;;8.30;99.90;;;;;;5042746;28;20233;-86
2023/02/04 00:56:50;;;;;;;6.83;6.20;;;8.30;99.90;;;;;;5042923;28;20169;-86
2023/02/04 00:59:16;;;;;;;5.87;5.37;;;8.40;99.90;;;;;;5042738;28;20232;-87
2023/02/04 01:01:42;;;;;;;6.17;5.47;;;8.40;99.90;;;;;;4998846;28;1228768;-85
2023/02/04 01:04:07;;;;;;;6.93;6.23;;;8.40;99.90;;;;;;5032343;28;20172;-86
2023/02/04 01:06:33;;;;;;;6.83;6.33;;;8.20;99.90;;;;;;5043594;28;20200;-87
2023/02/04 01:09:00;;;;;;;6.20;5.60;;;8.10;99.90;;;;;;5044271;28;20192;-86
2023/02/04 01:11:26;;;;;;;7.17;6.47;;;8.20;99.90;;;;;;5044353;28;20196;-86
2023/02/04 01:13:52;;;;;;;6.17;5.60;;;8.30;99.90;;;;;;5044063;28;20169;-86
2023/02/04 01:16:18;;;;;;;6.83;5.60;;;8.30;99.90;;;;;;5044212;28;20177;-85
2023/02/04 01:18:44;;;;;;;8.13;5.77;;;8.30;99.90;;;;;;5043589;28;20208;-86
2023/02/04 01:21:10;;;;;;;7.00;6.30;;;8.20;99.90;;;;;;5044427;28;20200;-86
2023/02/04 01:23:36;;;;;;;6.77;6.17;;;8.30;99.90;;;;;;5043910;28;20185;-86
2023/02/04 01:26:02;;;;;;;6.80;6.20;;;8.30;99.90;;;;;;5043629;28;20272;-86
2023/02/04 01:28:31;;;;;;;6.40;5.90;;;8.30;99.90;;;;;;5043832;28;20239;-87
2023/02/04 01:30:57;;;;;;;7.23;6.40;;;8.30;99.90;;;;;;5043403;28;20189;-87
2023/02/04 01:33:22;;;;;;;7.00;6.30;;;8.40;99.90;;;;;;5041754;28;20184;-86
2023/02/04 01:35:48;;;;;;;6.53;5.93;;;8.20;99.90;;;;;;5043576;28;20184;-86
2023/02/04 01:38:14;;;;;;;6.53;5.80;;;8.10;99.90;;;;;;5046660;28;20157;-86
2023/02/04 01:40:40;;;;;;;6.47;5.87;;;8.10;99.90;;;;;;5044018;28;20204;-85
2023/02/04 01:43:06;;;;;;;6.47;5.87;;;7.90;99.90;;;;;;5043715;28;20192;-86
2023/02/04 01:45:34;;;;;;;6.43;5.83;;;7.80;99.90;;;;;;5043513;28;20169;-86
2023/02/04 01:48:02;;;;;;;5.90;5.40;;;7.80;99.90;;;;;;5044714;28;20207;-85
2023/02/04 01:50:31;;;;;;;5.90;5.40;;;7.80;99.90;;;;;;5043625;28;20189;-85
2023/02/04 01:52:59;;;;;;;5.80;5.30;;;7.80;99.90;;;;;;5043354;28;20165;-86
2023/02/04 01:55:29;;;;;;;5.97;5.40;;;7.90;99.90;;;;;;5041911;28;20545;-85
2023/02/04 01:57:57;;;;;;;8.60;6.30;;;7.90;99.90;;;;;;5041644;28;20197;-85
2023/02/04 02:00:27;;;;;;;6.30;5.57;;;7.80;99.90;;;;;;5042710;28;20192;-87
2023/02/04 02:02:54;;;;;;;6.70;6.10;;;7.90;99.90;;;;;;5029863;28;20202;-86
2023/02/04 02:05:44;;;;;;;6.50;5.90;;;7.80;99.90;;;;;;5021649;28;20178;-85
2023/02/04 02:08:11;;;;;;;7.07;6.37;;;7.80;99.90;;;;;;5016751;28;20193;-86
2023/02/04 02:10:39;;;;;;;6.80;6.10;;;7.90;99.90;;;;;;5021890;28;20240;-86
2023/02/04 02:13:06;;;;;;;6.70;6.10;;;7.90;99.90;;;;;;5022045;28;20181;-86
2023/02/04 02:15:31;;;;;;;6.80;6.20;;;7.90;99.90;;;;;;5021402;28;20177;-86
2023/02/04 02:17:57;;;;;;;6.10;5.50;;;7.90;99.90;;;;;;5022245;28;20192;-85
2023/02/04 02:20:25;;;;;;;5.97;5.47;;;7.90;99.90;;;;;;5023664;28;20228;-86
2023/02/04 02:23:22;;;;;;;6.20;5.60;;;8.00;99.90;;;;;;5022396;28;20173;-86
2023/02/04 02:25:49;;;;;;;5.70;5.20;;;7.90;99.90;;;;;;5023722;28;20161;-86
2023/02/04 02:28:18;;;;;;;6.10;5.60;;;7.90;99.90;;;;;;5021422;28;20182;-86
2023/02/04 02:30:45;;;;;;;7.83;5.60;;;7.90;99.90;;;;;;5023605;28;20300;-85
2023/02/04 02:33:13;;;;;;;6.07;5.57;;;7.90;99.90;;;;;;5022421;28;20177;-87
2023/02/04 02:35:42;;;;;;;5.20;4.80;;;8.00;99.90;;;;;;5024293;28;20181;-86
2023/02/04 02:38:09;;;;;;;6.40;5.30;;;8.00;99.90;;;;;;5024774;28;20233;-86
2023/02/04 02:40:34;;;;;;;5.80;5.07;;;8.00;99.90;;;;;;5024180;28;20201;-85
2023/02/04 02:43:00;;;;;;;4.80;4.30;;;8.00;99.90;;;;;;5024043;28;20209;-85
2023/02/04 02:45:28;;;;;;;4.70;4.30;;;8.00;99.90;;;;;;5024004;28;20189;-86
2023/02/04 02:47:58;;;;;;;4.83;4.43;;;8.00;99.90;;;;;;5023327;28;20216;-86
2023/02/04 02:50:28;;;;;;;4.97;4.57;;;8.00;99.90;;;;;;5023803;28;20228;-85
2023/02/04 02:52:54;;;;;;;5.20;4.70;;;8.00;99.90;;;;;;5023680;28;20169;-85
2023/02/04 02:55:23;;;;;;;5.13;4.63;;;7.90;99.90;;;;;;5024113;28;20182;-85
2023/02/04 02:57:50;;;;;;;5.10;4.70;;;7.70;99.90;;;;;;5024136;28;20182;-85
2023/02/04 03:00:25;;;;;;;4.87;4.47;;;7.60;99.90;;;;;;5023288;28;20197;-85
2023/02/04 03:02:56;;;;;;;5.00;4.60;;;7.60;99.90;;;;;;5034990;28;20200;-86
2023/02/04 03:05:23;;;;;;;5.03;4.53;;;7.70;99.90;;;;;;5043388;28;20181;-85
2023/02/04 03:07:49;;;;;;;4.63;4.23;;;7.90;99.90;;;;;;5043164;28;20200;-83
2023/02/04 03:10:16;;;;;;;4.50;4.10;;;8.00;99.90;;;;;;5042954;28;20201;-84
2023/02/04 03:12:43;;;;;;;4.73;4.20;;;8.00;99.90;;;;;;5043394;28;20205;-84
2023/02/04 03:15:09;;;;;;;4.70;4.30;;;8.00;99.90;;;;;;5024726;28;20202;-84
2023/02/04 03:17:35;;;;;;;5.13;4.67;;;8.10;99.90;;;;;;5033772;28;20193;-84
2023/02/04 03:20:02;;;;;;;5.13;4.63;;;8.10;99.90;;;;;;5044962;28;20263;-85
2023/02/04 03:22:28;;;;;;;5.03;4.63;;;8.10;99.90;;;;;;5044776;28;20189;-84
2023/02/04 03:24:53;;;;;;;5.47;4.97;;;8.00;99.90;;;;;;5044907;28;20182;-85
2023/02/04 03:27:19;;;;;;;5.50;5.00;;;8.00;99.90;;;;;;5042917;28;20204;-83
2023/02/04 03:29:45;;;;;;;4.97;4.47;;;7.90;99.90;;;;;;5044322;28;20205;-84
2023/02/04 03:32:11;;;;;;;4.27;3.97;;;8.00;99.90;;;;;;5043921;28;20234;-85
2023/02/04 03:34:37;;;;;;;4.57;4.23;;;8.00;99.90;;;;;;5044017;28;20178;-83
2023/02/04 03:37:02;;;;;;;5.33;4.93;;;7.90;99.90;;;;;;5043060;28;20174;-84
2023/02/04 03:39:28;;;;;;;5.23;4.83;;;7.90;99.90;;;;;;5043234;28;21608;-84
2023/02/04 03:41:54;;;;;;;4.87;4.47;;;7.90;99.90;;;;;;5042990;28;20205;-81
2023/02/04 03:44:20;;;;;;;5.07;4.67;;;8.00;99.90;;;;;;5042318;28;20178;-84
2023/02/04 03:46:46;;;;;;;5.37;4.60;;;8.00;99.90;;;;;;5042301;28;20199;-84
2023/02/04 03:49:12;;;;;;;5.50;5.10;;;7.90;99.90;;;;;;5040463;28;20196;-84
2023/02/04 03:51:37;;;;;;;4.60;4.30;;;7.90;99.90;;;;;;5042705;28;20205;-83
2023/02/04 03:54:03;;;;;;;5.63;4.67;;;7.90;99.90;;;;;;5042722;28;20688;-83
2023/02/04 03:56:28;;;;;;;4.20;3.80;;;8.10;99.90;;;;;;5045613;28;20177;-84
2023/02/04 03:58:54;;;;;;;4.63;4.30;;;8.10;99.90;;;;;;5046097;28;20790;-84
2023/02/04 04:01:20;;;;;;;5.30;4.73;;;8.10;99.90;;;;;;5045287;28;20202;-84
2023/02/04 04:03:46;;;;;;;5.57;4.70;;;8.20;99.90;;;;;;5026204;28;20227;-84
2023/02/04 04:06:11;;;;;;;4.70;4.30;;;8.20;99.90;;;;;;5025284;28;20209;-83
2023/02/04 04:08:37;;;;;;;5.60;5.07;;;8.20;99.90;;;;;;5025983;28;20183;-84
2023/02/04 04:11:03;;;;;;;4.63;4.17;;;8.10;99.90;;;;;;5026622;28;20265;-84
2023/02/04 04:13:30;;;;;;;4.63;4.23;;;8.10;99.90;;;;;;5032636;28;20700;-85
2023/02/04 04:15:55;;;;;;;5.23;3.93;;;8.20;99.90;;;;;;5038155;28;20545;-82
2023/02/04 04:18:21;;;;;;;7.70;4.03;;;8.30;99.90;;;;;;5047036;28;20212;-84
2023/02/04 04:20:47;;;;;;;4.63;3.87;;;8.30;99.90;;;;;;5046591;28;20196;-84
2023/02/04 04:23:12;;;;;;;5.70;3.87;;;8.30;99.90;;;;;;5046979;28;20181;-84
2023/02/04 04:25:38;;;;;;;5.37;4.00;;;8.30;99.90;;;;;;5046388;28;20177;-85
2023/02/04 04:28:03;;;;;;;5.30;3.77;;;8.30;99.90;;;;;;5045799;28;20248;-83
2023/02/04 04:30:29;;;;;;;8.00;3.80;;;8.20;99.90;;;;;;5046869;28;20297;-85
2023/02/04 04:32:55;;;;;;;7.00;3.57;;;8.10;99.90;;;;;;5046567;28;20192;-85
2023/02/04 04:35:21;;;;;;;6.23;3.37;;;8.10;99.90;;;;;;5045946;28;20180;-84
2023/02/04 04:37:46;;;;;;;5.27;3.50;;;8.10;99.90;;;;;;5045980;28;20241;-85
2023/02/04 04:40:12;;;;;;;6.13;3.20;;;8.00;99.90;;;;;;5045806;28;20227;-83
2023/02/04 04:42:38;;;;;;;5.90;3.60;;;7.90;99.90;;;;;;5044929;28;20173;-85
2023/02/04 04:45:08;;;;;;;6.80;3.43;;;7.90;99.90;;;;;;5045189;28;20208;-84
2023/02/04 04:47:34;;;;;;;3.30;3.00;;;7.80;99.90;;;;;;5045778;28;20279;-82
2023/02/04 04:49:59;;;;;;;5.00;3.47;;;7.70;99.90;;;;;;5046160;28;20194;-84
2023/02/04 04:52:25;;;;;;;4.00;3.23;;;7.70;99.90;;;;;;5045990;28;20245;-86
2023/02/04 04:54:50;;;;;;;3.97;3.10;;;7.80;99.90;;;;;;5045528;28;20187;-84
2023/02/04 04:57:16;;;;;;;5.97;3.60;;;7.80;99.90;;;;;;5044851;28;20245;-84
2023/02/04 04:59:42;;;;;;;5.60;3.43;;;7.90;99.90;;;;;;5044415;28;20194;-83
2023/02/04 05:02:08;;;;;;;5.63;3.20;;;7.90;99.90;;;;;;5038261;28;20722;-83
2023/02/04 05:04:33;;;;;;;5.13;3.37;;;7.90;99.90;;;;;;5036347;28;20407;-84
2023/02/04 05:06:59;;;;;;;4.87;3.33;;;7.80;99.90;;;;;;5044489;28;20196;-85
2023/02/04 05:09:25;;;;;;;5.67;3.30;;;7.80;99.90;;;;;;5044163;28;20839;-83
2023/02/04 05:11:50;;;;;;;4.97;4.03;;;7.80;99.90;;;;;;5039769;28;20186;-85
2023/02/04 05:14:16;;;;;;;5.43;3.73;;;7.60;99.90;;;;;;5038426;28;20243;-84
2023/02/04 05:16:42;;;;;;;5.77;3.53;;;7.60;99.90;;;;;;5045557;28;20185;-85
2023/02/04 05:19:07;;;;;;;4.73;3.47;;;7.80;99.90;;;;;;5045246;28;20169;-85
2023/02/04 05:21:33;;;;;;;4.63;3.23;;;7.80;99.90;;;;;;5043758;28;20228;-84
2023/02/04 05:23:59;;;;;;;4.23;3.00;;;7.70;99.90;;;;;;5045634;28;20174;-84
2023/02/04 05:26:26;;;;;;;7.27;3.80;;;7.80;99.90;;;;;;5045027;28;20214;-84
2023/02/04 05:28:51;;;;;;;3.90;3.27;;;7.90;99.90;;;;;;5045084;28;20246;-84
2023/02/04 05:31:17;;;;;;;5.10;3.57;;;8.10;99.90;;;;;;5044807;28;20203;-84
2023/02/04 05:33:43;;;;;;;4.43;3.13;;;8.10;99.90;;;;;;5043931;28;20182;-83
2023/02/04 05:36:08;;;;;;;4.33;2.90;;;8.00;99.90;;;;;;5043765;28;20688;-83
2023/02/04 05:38:34;;;;;;;7.03;2.80;;;8.00;99.90;;;;;;5044115;28;20586;-85
2023/02/04 05:41:00;;;;;;;5.20;3.13;;;7.90;99.90;;;;;;5044359;28;20197;-82
2023/02/04 05:43:25;;;;;;;4.87;3.00;;;7.90;99.90;;;;;;5044156;28;20185;-83
2023/02/04 05:45:51;;;;;;;4.20;3.00;;;7.80;99.90;;;;;;5045654;28;20208;-84
2023/02/04 05:48:18;;;;;;;3.53;3.23;;;7.80;99.90;;;;;;5044613;28;20184;-85
2023/02/04 05:50:43;;;;;;;3.33;3.03;;;7.70;99.90;;;;;;5043947;28;20198;-85
2023/02/04 05:53:09;;;;;;;3.20;2.43;;;7.60;99.90;;;;;;5043795;28;20242;-88
2023/02/04 05:55:35;;;;;;;5.10;2.70;;;7.60;99.90;;;;;;5044203;28;20179;-83
2023/02/04 05:58:00;;;;;;;3.27;2.80;;;7.60;99.90;;;;;;5042468;28;20581;-84
2023/02/04 06:00:26;;;;;;;4.40;2.83;;;7.60;99.90;;;;;;5044453;28;20203;-85
2023/02/04 06:02:53;;;;;;;3.10;2.80;;;7.60;99.90;;;;;;5045133;28;20241;-84
2023/02/04 06:05:19;;;;;;;3.27;2.97;;;7.70;99.90;;;;;;5027643;28;20211;-84
2023/02/04 06:07:45;;;;;;;5.03;3.10;;;7.80;99.90;;;;;;5037295;28;20217;-84
2023/02/04 06:10:11;;;;;;;5.17;3.07;;;7.90;99.90;;;;;;5044876;28;20202;-83
2023/02/04 06:12:36;;;;;;;4.00;3.23;;;7.80;99.90;;;;;;5045180;28;20189;-86
2023/02/04 06:15:02;;;;;;;3.40;2.77;;;7.90;99.90;;;;;;5025506;28;20176;-84
2023/02/04 06:17:28;;;;;;;5.17;3.50;;;7.80;99.90;;;;;;5025128;28;20185;-85
2023/02/04 06:19:54;;;;;;;3.50;2.77;;;7.70;99.90;;;;;;5025653;28;20600;-85
2023/02/04 06:22:20;;;;;;;5.03;3.13;;;7.60;99.90;;;;;;5042438;28;20181;-86
2023/02/04 06:24:45;;;;;;;4.00;2.97;;;7.60;99.90;;;;;;5043504;28;20691;-85
2023/02/04 06:27:11;;;;;;;3.67;2.70;;;7.60;99.90;;;;;;5043407;28;20233;-86
2023/02/04 06:29:37;;;;;;;3.87;2.90;;;7.70;99.90;;;;;;5043890;28;20229;-85
2023/02/04 06:32:02;;;;;;;3.57;2.93;;;7.90;99.90;;;;;;5044363;28;20182;-85
2023/02/04 06:34:28;;;;;;;4.03;2.60;;;7.70;99.90;;;;;;5043730;28;20179;-86
2023/02/04 06:36:54;;;;;;;3.97;3.07;;;7.70;99.90;;;;;;5043531;28;20179;-85
2023/02/04 06:39:20;;;;;;;3.67;3.30;;;7.60;99.90;;;;;;5043722;28;20224;-85
2023/02/04 06:41:45;;;;;;;4.37;3.97;;;7.60;99.90;;;;;;5043846;28;20188;-85
2023/02/04 06:44:11;;;;;;;3.83;3.50;;;7.60;99.90;;;;;;5044955;28;20213;-86
2023/02/04 06:46:37;;;;;;;4.00;2.83;;;7.60;99.90;;;;;;5044951;28;20200;-85
2023/02/04 06:49:02;;;;;;;3.23;2.93;;;7.60;99.90;;;;;;5043554;28;20178;-84
2023/02/04 06:51:28;;;;;;;2.93;2.70;;;7.60;99.90;;;;;;5044816;28;20288;-85
2023/02/04 06:53:54;;;;;;;4.00;2.90;;;7.60;99.90;;;;;;5044491;28;20189;-84
2023/02/04 06:56:20;;;;;;;5.63;3.27;;;7.60;99.90;;;;;;5042929;28;20266;-85
2023/02/04 06:58:47;;;;;;;3.83;2.80;;;7.60;99.90;;;;;;5041861;28;20276;-85
2023/02/04 07:01:12;;;;;;;5.00;2.83;;;7.60;99.90;;;;;;5044615;28;20193;-84
2023/02/04 07:03:38;;;;;;;3.00;2.70;;;7.60;99.90;;;;;;5044115;28;20232;-85
2023/02/04 07:06:04;;;;;;;3.00;2.77;;;7.70;99.90;;;;;;5027477;28;20247;-82
2023/02/04 07:08:30;;;;;;;3.50;3.13;;;7.60;99.90;;;;;;5024413;28;20181;-84
2023/02/04 07:10:55;;;;;;;4.77;3.63;;;7.60;99.90;;;;;;5025027;28;20199;-84
2023/02/04 07:13:21;;;;;;;6.30;4.70;;;7.60;99.90;;;;;;5029856;28;20182;-85
2023/02/04 07:15:47;;;;;;;6.27;5.67;;;7.60;99.90;;;;;;5044875;28;20173;-84
2023/02/04 07:18:12;;;;;;;6.53;5.70;;;7.60;99.90;;;;;;5045914;28;20248;-85
2023/02/04 07:20:38;;;;;;;9.33;6.93;;;7.60;99.90;;;;;;5045504;28;20210;-86
2023/02/04 07:23:04;;;;;;;8.33;7.53;;;7.60;99.90;;;;;;5045215;28;20209;-84
2023/02/04 07:25:29;;;;;;;8.77;6.47;;;7.60;99.90;;;;;;5044957;28;20436;-84
2023/02/04 07:27:56;;;;;;;6.90;6.20;;;7.50;99.90;;;;;;5042887;28;20220;-85
2023/02/04 07:30:22;;;;;;;9.53;8.53;;;7.60;99.90;;;;;;5043805;28;20193;-85
2023/02/04 07:32:47;;;;;;;12.63;11.47;;;7.80;99.90;;;;;;5046634;28;20221;-86
2023/02/04 07:35:13;;;;;;;8.27;7.30;;;7.80;99.90;;;;;;5046363;28;20290;-85
2023/02/04 07:37:39;;;;;;;8.67;7.77;;;7.70;99.90;;;;;;5046556;28;20231;-84
2023/02/04 07:40:05;;;;;;;8.93;7.73;;;7.60;99.90;;;;;;5045121;28;20271;-85
2023/02/04 07:42:30;;;;;;;6.47;5.70;;;7.60;99.90;;;;;;5043797;28;20212;-84
2023/02/04 07:44:56;;;;;;;7.03;5.80;;;7.60;99.90;;;;;;5042217;28;20181;-83
2023/02/04 07:47:22;;;;;;;6.10;5.50;;;7.80;99.90;;;;;;5043309;28;20201;-83
2023/02/04 07:49:47;;;;;;;5.90;5.37;;;7.80;99.90;;;;;;5044175;28;20619;-84
2023/02/04 07:52:13;;;;;;;7.33;5.83;;;7.70;99.90;;;;;;5044340;28;20393;-85
2023/02/04 07:54:38;;;;;;;4.70;4.30;;;7.60;99.90;;;;;;5043167;28;20198;-84
2023/02/04 07:57:04;;;;;;;4.37;3.97;;;7.70;99.90;;;;;;5043883;28;20178;-84
2023/02/04 07:59:30;;;;;;;4.33;4.00;;;7.80;99.90;;;;;;5042556;28;20200;-85
2023/02/04 08:01:55;;;;;;;5.47;5.03;;;7.80;99.90;;;;;;5038553;28;20180;-84
2023/02/04 08:04:21;;;;;;;4.20;3.90;;;7.80;99.90;;;;;;5036407;28;20242;-86
2023/02/04 08:06:47;;;;;;;4.17;3.43;;;7.80;99.90;;;;;;5045219;28;20206;-85
2023/02/04 08:09:12;;;;;;;4.10;3.70;;;7.80;99.90;;;;;;5043364;28;20201;-84
2023/02/04 08:11:38;;;;;;;4.60;4.00;;;7.90;99.90;;;;;;5043971;28;20285;-84
2023/02/04 08:14:04;;;;;;;6.23;4.60;;;7.90;99.90;;;;;;5032722;28;20212;-86
2023/02/04 08:16:29;;;;;;;6.40;4.57;;;7.90;99.90;;;;;;5026722;28;20207;-85
2023/02/04 08:18:55;;;;;;;5.40;4.90;;;7.90;99.90;;;;;;5024086;28;20556;-85
2023/02/04 08:21:20;;;;;;;6.03;4.13;;;8.00;99.90;;;;;;5023654;28;20286;-84
2023/02/04 08:23:46;;;;;;;5.47;4.60;;;8.00;99.90;;;;;;5022896;28;20183;-85
2023/02/04 08:26:12;;;;;;;4.97;4.30;;;8.10;99.90;;;;;;5022649;28;20597;-85
2023/02/04 08:28:38;;;;;;;5.60;5.10;;;8.00;99.90;;;;;;5024181;28;20587;-85
2023/02/04 08:31:05;;;;;;;5.77;5.10;;;8.00;99.90;;;;;;5022464;28;20191;-84
2023/02/04 08:33:31;;;;;;;5.97;4.47;;;7.90;99.90;;;;;;5023653;28;20184;-85
2023/02/04 08:35:57;;;;;;;6.67;5.10;;;7.90;99.90;;;;;;5024479;28;20611;-84
2023/02/04 08:38:22;;;;;;;5.77;5.17;;;7.80;99.90;;;;;;5022694;28;20183;-86
2023/02/04 08:40:48;;;;;;;8.23;7.50;;;7.80;99.90;;;;;;5021515;28;20198;-83
2023/02/04 08:43:13;;;;;;;5.93;4.67;;;7.80;99.90;;;;;;5020598;28;20567;-85
2023/02/04 08:45:40;;;;;;;6.17;4.47;;;7.80;99.90;;;;;;5021135;28;20255;-85
2023/02/04 08:48:06;;;;;;;4.17;3.83;;;7.90;99.90;;;;;;5023332;28;20210;-86
2023/02/04 08:50:32;;;;;;;5.63;4.10;;;8.00;99.90;;;;;;5026119;28;20259;-87
2023/02/04 08:52:57;;;;;;;4.73;3.03;;;8.20;99.90;;;;;;5037312;28;20187;-84
2023/02/04 08:55:23;;;;;;;5.60;5.20;;;8.40;99.90;;;;;;5043447;28;20186;-84
2023/02/04 08:57:49;;;;;;;4.80;4.00;;;8.40;99.90;;;;;;5052564;28;20254;-85
2023/02/04 09:00:15;;;;;;;4.53;3.60;;;8.30;99.90;;;;;;5049748;28;20197;-84
2023/02/04 09:02:40;;;;;;;5.50;3.40;;;8.30;99.90;;;;;;5028127;28;20206;-85
2023/02/04 09:05:06;;;;;;;5.97;3.80;;;8.40;99.90;;;;;;5035831;28;20182;-85
2023/02/04 09:07:32;;;;;;;3.80;3.43;;;8.50;99.90;;;;;;5043457;28;20210;-84
2023/02/04 09:09:57;;;;;;;6.57;5.57;;;8.60;99.90;;;;;;5043680;28;20203;-85
2023/02/04 09:12:23;;;;;;;5.23;3.53;;;8.70;99.90;;;;;;5042357;28;20188;-84
2023/02/04 09:14:49;;;;;;;6.43;4.10;;;8.80;99.90;;;;;;5041089;28;20176;-87
2023/02/04 09:17:14;;;;;;;5.57;3.53;;;8.90;99.90;;;;;;5041574;28;20246;-86
2023/02/04 09:19:40;;;;;;;8.07;4.07;;;9.00;99.90;;;;;;5039603;28;20204;-86
2023/02/04 09:22:05;;;;;;;6.40;3.70;;;9.00;99.90;;;;;;5039110;28;20188;-86
2023/02/04 09:24:31;;;;;;;8.93;4.20;;;9.10;99.90;;;;;;5039875;28;20673;-84
2023/02/04 09:26:57;;;;;;;5.63;4.27;;;9.00;99.90;;;;;;5039609;28;20206;-85
2023/02/04 09:29:22;;;;;;;7.30;3.30;;;9.10;99.90;;;;;;5048738;28;20198;-86
2023/02/04 09:31:48;;;;;;;5.23;4.00;;;9.20;99.90;;;;;;5047898;28;20181;-85
2023/02/04 09:34:14;;;;;;;7.30;3.77;;;9.00;99.90;;;;;;5038979;28;20185;-85
2023/02/04 09:36:39;;;;;;;4.33;3.90;;;9.00;99.90;;;;;;5042108;28;20195;-84
2023/02/04 09:39:08;;;;;;;9.37;4.30;;;9.10;99.90;;;;;;5042417;28;20196;-85
2023/02/04 09:41:34;;;;;;;6.57;3.90;;;9.20;99.90;;;;;;5040393;28;20286;-86
2023/02/04 09:44:00;;;;;;;9.47;4.37;;;9.30;99.90;;;;;;5040016;28;20186;-83
2023/02/04 09:46:30;;;;;;;8.43;4.67;;;9.30;96.20;;;;;;5041701;28;20207;-85
2023/02/04 09:48:57;;;;;;;8.53;4.57;;;9.20;99.90;;;;;;5042644;28;20259;-85
2023/02/04 09:51:27;;;;;;;7.67;4.13;;;9.20;99.90;;;;;;5042027;28;20583;-85
2023/02/04 09:53:57;;;;;;;7.87;4.33;;;9.30;99.90;;;;;;5032796;28;20226;-85
2023/02/04 09:56:24;;;;;;;5.67;3.93;;;9.40;99.30;;;;;;5019253;28;20220;-85
2023/02/04 09:58:50;;;;;;;7.53;4.00;;;9.40;98.40;;;;;;5020177;28;20499;-85
2023/02/04 10:01:19;;;;;;;7.17;4.23;;;9.40;99.10;;;;;;5016915;28;20203;-85
2023/02/04 10:03:49;;;;;;;7.80;4.43;;;9.40;99.50;;;;;;5022343;28;20227;-86
2023/02/04 10:06:20;;;;;;;9.77;5.17;;;9.50;98.00;;;;;;5037238;28;20232;-86
2023/02/04 10:08:48;;;;;;;9.20;4.80;;;9.40;95.80;;;;;;5038712;28;20178;-84
2023/02/04 10:11:16;;;;;;;16.07;5.30;;;9.40;92.10;;;;;;5036618;28;20191;-87
2023/02/04 10:13:45;;;;;;;14.70;5.30;;;9.40;90.10;;;;;;5029343;28;20174;-86
2023/02/04 10:16:17;;;;;;;13.00;5.10;;;9.30;92.40;;;;;;5025735;28;20518;-87
2023/02/04 10:18:43;;;;;;;11.50;4.90;;;9.40;90.80;;;;;;5023026;28;20178;-85
2023/02/04 10:21:13;;;;;;;12.77;5.27;;;9.50;88.20;;;;;;5026112;28;20201;-87
2023/02/04 10:23:40;;;;;;;13.77;5.67;;;9.60;89.70;;;;;;5037491;28;20183;-87
2023/02/04 10:26:12;;;;;;;9.93;5.03;;;10.00;89.20;;;;;;5037654;28;20215;-86
2023/02/04 10:28:41;;;;;;;13.90;5.50;;;10.20;88.20;;;;;;5037434;28;20195;-86
2023/02/04 10:31:31;;;;;;;13.63;5.30;;;10.30;84.50;;;;;;5040382;28;20190;-87
2023/02/04 10:34:10;;;;;;;13.83;6.07;;;10.10;78.40;;;;;;5040026;28;20640;-85
2023/02/04 10:36:36;;;;;;;12.87;5.60;;;10.10;82.80;;;;;;5037900;28;20169;-84
2023/02/04 10:39:04;;;;;;;9.80;5.07;;;10.00;83.60;;;;;;5037476;28;20193;-85
2023/02/04 10:41:29;;;;;;;12.73;5.40;;;9.90;81.80;;;;;;5039213;28;20700;-85
2023/02/04 10:44:08;;;;;;;18.60;5.43;;;9.90;83.80;;;;;;5038391;28;20220;-85
2023/02/04 10:46:34;;;;;;;12.70;4.97;;;10.00;84.90;;;;;;5038814;28;20303;-85
2023/02/04 10:48:59;;;;;;;15.10;5.60;;;9.90;81.00;;;;;;5033074;28;20299;-85
2023/02/04 10:51:25;;;;;;;9.57;4.50;;;9.70;81.80;;;;;;5038269;28;20268;-86
2023/02/04 10:56:34;;;;;;;15.73;5.03;;;10.30;81.10;;;;;;5038642;28;20248;-86
2023/02/04 10:59:00;;;;;;;12.93;4.67;;;10.60;73.30;;;;;;5036986;28;20186;-86
2023/02/04 11:01:28;;;;;;;10.57;4.97;;;10.90;72.20;;;;;;5038631;28;20194;-85
2023/02/04 11:03:54;;;;;;;10.07;4.93;;;11.20;72.70;;;;;;5019617;28;20205;-85
2023/02/04 11:06:23;;;;;;;10.90;5.33;;;11.40;70.00;;;;;;5021014;28;20299;-85
2023/02/04 11:08:52;;;;;;;11.97;5.40;;;11.60;75.10;;;;;;5021136;28;20177;-86
2023/02/04 11:11:21;;;;;;;10.73;5.07;;;11.70;71.60;;;;;;5019952;28;20239;-85
2023/02/04 11:13:49;;;;;;;11.43;4.80;;;11.60;68.20;;;;;;5030814;28;20633;-84
2023/02/04 11:16:31;;;;;;;14.80;5.23;;;11.20;69.00;;;;;;5041640;28;20173;-84
2023/02/04 11:19:06;;;;;;;9.43;4.83;;;10.90;70.20;;;;;;5043560;28;20662;-84
2023/02/04 11:21:31;;;;;;;8.63;4.57;;;10.60;73.50;;;;;;5042485;28;20288;-87
2023/02/04 11:24:12;;;;;;;9.40;4.60;;;10.30;72.80;;;;;;5051349;28;20170;-86
2023/02/04 11:26:44;;;;;;;10.97;5.30;;;10.20;77.20;;;;;;5050682;28;20225;-87
2023/02/04 11:29:16;;;;;;;14.93;4.87;;;10.10;75.00;;;;;;5046930;28;20182;-86
2023/02/04 11:31:47;;;;;;;10.67;4.43;;;10.10;75.20;;;;;;5048189;28;20183;-86
2023/02/04 11:34:19;;;;;;;11.87;4.77;;;10.20;76.10;;;;;;5046748;28;20187;-86
2023/02/04 11:37:11;;;;;;;9.87;4.53;;;10.40;78.70;;;;;;5050433;28;20198;-86
2023/02/04 11:39:41;;;;;;;13.27;5.53;;;10.60;81.20;;;;;;5049471;28;20210;-88
2023/02/04 11:42:23;;;;;;;9.40;4.97;;;10.50;74.70;;;;;;5047726;28;20179;-86
2023/02/04 11:45:00;;;;;;;16.13;5.40;;;10.80;74.30;;;;;;5040921;28;20191;-86
2023/02/04 11:47:33;;;;;;;12.20;4.77;;;11.10;72.40;;;;;;5045690;28;20297;-86
2023/02/04 11:50:03;;;;;;;12.43;5.13;;;11.30;70.40;;;;;;5046265;28;20223;-85
2023/02/04 11:52:28;;;;;;;10.50;4.57;;;11.00;70.70;;;;;;5044829;28;20206;-84
2023/02/04 11:54:59;;;;;;;11.73;4.87;;;10.90;71.50;;;;;;5045170;28;20179;-87
2023/02/04 11:57:25;;;;;;;14.80;4.90;;;10.70;73.20;;;;;;5045180;28;20189;-86
2023/02/04 11:59:51;;;;;;;12.60;5.30;;;10.60;72.50;;;;;;5044005;28;20251;-85
2023/02/04 12:02:20;;;;;;;11.77;5.07;;;10.90;71.10;;;;;;5040838;28;20194;-85
2023/02/04 12:05:11;;;;;;;13.37;5.47;;;11.40;69.80;;;;;;5026953;28;20211;-85
2023/02/04 12:07:36;;;;;;;9.43;4.33;;;11.80;66.90;;;;;;5015840;28;20235;-86
2023/02/04 12:10:23;;;;;;;8.07;4.93;;;12.10;66.80;;;;;;5020060;28;20217;-85
2023/02/04 12:12:56;;;;;;;13.93;4.90;;;12.30;64.50;;;;;;5023246;28;20568;-86
2023/02/04 12:15:36;;;;;;;8.47;5.10;;;12.20;64.20;;;;;;5040865;28;20179;-86
2023/02/04 12:18:06;;;;;;;7.57;4.53;;;12.60;63.90;;;;;;5042265;28;20165;-86
2023/02/04 12:20:32;;;;;;;9.43;4.60;;;12.80;63.50;;;;;;5042668;28;20193;-85
2023/02/04 12:22:57;;;;;;;8.47;4.50;;;12.80;62.30;;;;;;5044142;28;20181;-85
2023/02/04 12:25:24;;;;;;;9.07;4.90;;;12.80;61.00;;;;;;5042464;28;20287;-85
2023/02/04 12:27:50;;;;;;;16.33;3.90;;;13.00;58.50;;;;;;5043606;28;20221;-85
2023/02/04 12:30:17;;;;;;;8.43;4.00;;;13.30;58.70;;;;;;5043630;28;20205;-86
2023/02/04 12:32:43;;;;;;;6.53;4.07;;;13.70;56.10;;;;;;5043408;28;20266;-87
2023/02/04 12:35:08;;;;;;;7.80;3.70;;;13.50;56.50;;;;;;5041755;28;20192;-85
2023/02/04 12:37:34;;;;;;;9.67;4.27;;;13.80;52.20;;;;;;5043131;28;20299;-85
2023/02/04 12:40:00;;;;;;;11.60;4.80;;;13.80;56.20;;;;;;5043297;28;20220;-85
2023/02/04 12:42:25;;;;;;;9.40;4.67;;;13.50;56.90;;;;;;5033316;28;20667;-85
2023/02/04 12:44:51;;;;;;;9.60;4.13;;;13.20;57.50;;;;;;5024376;28;20548;-85
2023/02/04 12:47:16;;;;;;;7.30;4.13;;;13.20;59.90;;;;;;5025227;28;20461;-85
2023/02/04 12:49:42;;;;;;;14.07;4.57;;;13.50;58.10;;;;;;5024525;28;20669;-85
2023/02/04 12:52:08;;;;;;;8.87;3.97;;;13.70;54.30;;;;;;5024502;28;20664;-84
2023/02/04 12:54:34;;;;;;;5.97;3.83;;;13.90;53.10;;;;;;5020186;28;20877;-86